Bad Radkersburg, Austria
Current Conditions -  °F | °C
As of 12:00 PM on Sunday 25 Jan 2015 (Local Time) from LJMB Reporting Station
Overcast Overcast  
Wind Chill: 36°   Ceiling: 4500
Heat Index: 39°   Visibility: 6mi
Dew Point: 25°   Wind: 5mph
Humidity: 56%   Direction: 360°N
Pressure: 30.06"   Gusts: NA
Location:  46.69°N, 15.99°E
Report Text: LJMB 251000Z 36004KT 300V040 9999 BKN045 OVC055 04/M04 Q1018
Loading
Personal Weather Stations






























Interactive Weather Map New forecast layout! Learn more

10-Day Weather Forecast

Advertisements
Track Severe Weather on mobile